sensor_id;sensor_type;location;lat;lon;timestamp;temperature;humidity
10968;DHT22;5536;49.602;10.980;2022-08-24T00:01:13;17.90;99.90
10968;DHT22;5536;49.602;10.980;2022-08-24T00:03:41;18.00;99.90
10968;DHT22;5536;49.602;10.980;2022-08-24T00:06:13;17.80;99.90
10968;DHT22;5536;49.602;10.980;2022-08-24T00:08:41;17.70;99.90
10968;DHT22;5536;49.602;10.980;2022-08-24T00:11:09;17.80;99.90
10968;DHT22;5536;49.602;10.980;2022-08-24T00:13:36;17.70;99.90
10968;DHT22;5536;49.602;10.980;2022-08-24T00:16:06;17.60;99.90
10968;DHT22;5536;49.602;10.980;2022-08-24T00:18:34;17.40;99.90
10968;DHT22;5536;49.602;10.980;2022-08-24T00:21:01;17.40;99.90
10968;DHT22;5536;49.602;10.980;2022-08-24T00:23:29;17.40;99.90
10968;DHT22;5536;49.602;10.980;2022-08-24T00:25:56;17.40;99.90
10968;DHT22;5536;49.602;10.980;2022-08-24T00:28:23;17.50;99.90
10968;DHT22;5536;49.602;10.980;2022-08-24T00:30:50;17.40;99.90
10968;DHT22;5536;49.602;10.980;2022-08-24T00:33:19;17.30;99.90
10968;DHT22;5536;49.602;10.980;2022-08-24T00:35:46;17.30;99.90
10968;DHT22;5536;49.602;10.980;2022-08-24T00:38:13;17.10;99.90
10968;DHT22;5536;49.602;10.980;2022-08-24T00:40:45;17.20;99.90
10968;DHT22;5536;49.602;10.980;2022-08-24T00:43:12;17.30;99.90
10968;DHT22;5536;49.602;10.980;2022-08-24T00:45:42;17.10;99.90
10968;DHT22;5536;49.602;10.980;2022-08-24T00:48:13;16.90;99.90
10968;DHT22;5536;49.602;10.980;2022-08-24T00:50:46;17.00;99.90
10968;DHT22;5536;49.602;10.980;2022-08-24T00:53:19;16.90;99.90
10968;DHT22;5536;49.602;10.980;2022-08-24T00:55:52;17.00;99.90
10968;DHT22;5536;49.602;10.980;2022-08-24T00:58:27;17.00;99.90
10968;DHT22;5536;49.602;10.980;2022-08-24T01:00:57;16.90;99.90
10968;DHT22;5536;49.602;10.980;2022-08-24T01:03:26;16.90;99.90
10968;DHT22;5536;49.602;10.980;2022-08-24T01:05:54;16.90;99.90
10968;DHT22;5536;49.602;10.980;2022-08-24T01:08:23;16.80;99.90
10968;DHT22;5536;49.602;10.980;2022-08-24T01:10:53;16.70;99.90
10968;DHT22;5536;49.602;10.980;2022-08-24T01:13:22;16.70;99.90
10968;DHT22;5536;49.602;10.980;2022-08-24T01:15:53;16.60;99.90
10968;DHT22;5536;49.602;10.980;2022-08-24T01:18:22;16.70;99.90
10968;DHT22;5536;49.602;10.980;2022-08-24T01:21:11;16.70;99.90
10968;DHT22;5536;49.602;10.980;2022-08-24T01:23:43;16.60;99.90
10968;DHT22;5536;49.602;10.980;2022-08-24T01:26:14;16.60;99.90
10968;DHT22;5536;49.602;10.980;2022-08-24T01:28:45;16.60;99.90
10968;DHT22;5536;49.602;10.980;2022-08-24T01:31:13;16.60;99.90
10968;DHT22;5536;49.602;10.980;2022-08-24T01:33:40;16.60;99.90
10968;DHT22;5536;49.602;10.980;2022-08-24T01:36:16;16.60;99.90
10968;DHT22;5536;49.602;10.980;2022-08-24T01:38:45;16.60;99.90
10968;DHT22;5536;49.602;10.980;2022-08-24T01:41:13;16.50;99.90
10968;DHT22;5536;49.602;10.980;2022-08-24T01:43:40;16.50;99.90
10968;DHT22;5536;49.602;10.980;2022-08-24T01:46:08;16.40;99.90
10968;DHT22;5536;49.602;10.980;2022-08-24T01:48:35;16.40;99.90
10968;DHT22;5536;49.602;10.980;2022-08-24T01:51:02;16.30;99.90
10968;DHT22;5536;49.602;10.980;2022-08-24T01:53:29;16.30;99.90
10968;DHT22;5536;49.602;10.980;2022-08-24T01:55:57;16.10;99.90
10968;DHT22;5536;49.602;10.980;2022-08-24T01:58:24;16.10;99.90
10968;DHT22;5536;49.602;10.980;2022-08-24T02:00:51;16.10;99.90
10968;DHT22;5536;49.602;10.980;2022-08-24T02:03:18;16.10;99.90
10968;DHT22;5536;49.602;10.980;2022-08-24T02:05:46;16.00;99.90
10968;DHT22;5536;49.602;10.980;2022-08-24T02:08:13;16.00;99.90
10968;DHT22;5536;49.602;10.980;2022-08-24T02:10:40;16.00;99.90
10968;DHT22;5536;49.602;10.980;2022-08-24T02:13:09;15.90;99.90
10968;DHT22;5536;49.602;10.980;2022-08-24T02:15:37;15.90;99.90
10968;DHT22;5536;49.602;10.980;2022-08-24T02:18:05;15.80;99.90
10968;DHT22;5536;49.602;10.980;2022-08-24T02:20:34;15.90;99.90
10968;DHT22;5536;49.602;10.980;2022-08-24T02:23:02;15.90;99.90
10968;DHT22;5536;49.602;10.980;2022-08-24T02:25:31;15.80;99.90
10968;DHT22;5536;49.602;10.980;2022-08-24T02:27:58;15.90;99.90
10968;DHT22;5536;49.602;10.980;2022-08-24T02:30:28;15.90;99.90
10968;DHT22;5536;49.602;10.980;2022-08-24T02:32:56;15.70;99.90
10968;DHT22;5536;49.602;10.980;2022-08-24T02:35:24;15.60;99.90
10968;DHT22;5536;49.602;10.980;2022-08-24T02:37:51;15.60;99.90
10968;DHT22;5536;49.602;10.980;2022-08-24T02:40:18;15.90;99.90
10968;DHT22;5536;49.602;10.980;2022-08-24T02:42:45;15.80;99.90
10968;DHT22;5536;49.602;10.980;2022-08-24T02:45:12;15.80;99.90
10968;DHT22;5536;49.602;10.980;2022-08-24T02:47:41;15.70;99.90
10968;DHT22;5536;49.602;10.980;2022-08-24T02:50:11;15.80;99.90
10968;DHT22;5536;49.602;10.980;2022-08-24T02:52:40;15.80;99.90
10968;DHT22;5536;49.602;10.980;2022-08-24T02:55:10;15.70;99.90
10968;DHT22;5536;49.602;10.980;2022-08-24T02:57:38;15.70;99.90
10968;DHT22;5536;49.602;10.980;2022-08-24T03:00:09;15.50;99.90
10968;DHT22;5536;49.602;10.980;2022-08-24T03:02:37;15.50;99.90
10968;DHT22;5536;49.602;10.980;2022-08-24T03:05:07;15.50;99.90
10968;DHT22;5536;49.602;10.980;2022-08-24T03:07:34;15.70;99.90
10968;DHT22;5536;49.602;10.980;2022-08-24T03:10:01;15.70;99.90
10968;DHT22;5536;49.602;10.980;2022-08-24T03:12:28;15.50;99.90
10968;DHT22;5536;49.602;10.980;2022-08-24T03:14:56;15.60;99.90
10968;DHT22;5536;49.602;10.980;2022-08-24T03:17:23;15.50;99.90
10968;DHT22;5536;49.602;10.980;2022-08-24T03:19:50;15.50;99.90
10968;DHT22;5536;49.602;10.980;2022-08-24T03:22:18;15.30;99.90
10968;DHT22;5536;49.602;10.980;2022-08-24T03:24:45;15.20;99.90
10968;DHT22;5536;49.602;10.980;2022-08-24T03:27:12;15.20;99.90
10968;DHT22;5536;49.602;10.980;2022-08-24T03:29:39;15.40;99.90
10968;DHT22;5536;49.602;10.980;2022-08-24T03:32:06;15.50;99.90
10968;DHT22;5536;49.602;10.980;2022-08-24T03:34:33;15.50;99.90
10968;DHT22;5536;49.602;10.980;2022-08-24T03:37:01;15.50;99.90
10968;DHT22;5536;49.602;10.980;2022-08-24T03:39:29;15.50;99.90
10968;DHT22;5536;49.602;10.980;2022-08-24T03:41:56;15.50;99.90
10968;DHT22;5536;49.602;10.980;2022-08-24T03:44:23;15.40;99.90
10968;DHT22;5536;49.602;10.980;2022-08-24T03:46:51;15.50;99.90
10968;DHT22;5536;49.602;10.980;2022-08-24T03:49:19;15.40;99.90
10968;DHT22;5536;49.602;10.980;2022-08-24T03:51:46;15.50;99.90
10968;DHT22;5536;49.602;10.980;2022-08-24T03:54:14;15.40;99.90
10968;DHT22;5536;49.602;10.980;2022-08-24T03:56:43;15.20;99.90
10968;DHT22;5536;49.602;10.980;2022-08-24T03:59:10;15.10;99.90
10968;DHT22;5536;49.602;10.980;2022-08-24T04:01:38;15.00;99.90
10968;DHT22;5536;49.602;10.980;2022-08-24T04:04:05;15.00;99.90
10968;DHT22;5536;49.602;10.980;2022-08-24T04:06:32;15.10;99.90
10968;DHT22;5536;49.602;10.980;2022-08-24T04:08:59;15.20;99.90
10968;DHT22;5536;49.602;10.980;2022-08-24T04:11:28;15.20;99.90
10968;DHT22;5536;49.602;10.980;2022-08-24T04:13:57;15.20;99.90
10968;DHT22;5536;49.602;10.980;2022-08-24T04:16:25;15.20;99.90
10968;DHT22;5536;49.602;10.980;2022-08-24T04:18:52;15.10;99.90
10968;DHT22;5536;49.602;10.980;2022-08-24T04:21:22;15.20;99.90
10968;DHT22;5536;49.602;10.980;2022-08-24T04:23:50;15.10;99.90
10968;DHT22;5536;49.602;10.980;2022-08-24T04:26:19;15.10;99.90
10968;DHT22;5536;49.602;10.980;2022-08-24T04:28:46;15.10;99.90
10968;DHT22;5536;49.602;10.980;2022-08-24T04:31:14;15.00;99.90
10968;DHT22;5536;49.602;10.980;2022-08-24T04:33:43;14.90;99.90
10968;DHT22;5536;49.602;10.980;2022-08-24T04:36:12;15.00;99.90
10968;DHT22;5536;49.602;10.980;2022-08-24T04:38:39;15.00;99.90
10968;DHT22;5536;49.602;10.980;2022-08-24T04:41:07;15.10;99.90
10968;DHT22;5536;49.602;10.980;2022-08-24T04:43:35;15.00;99.90
10968;DHT22;5536;49.602;10.980;2022-08-24T04:46:04;14.80;99.90
10968;DHT22;5536;49.602;10.980;2022-08-24T04:48:33;14.70;99.90
10968;DHT22;5536;49.602;10.980;2022-08-24T04:51:01;14.70;99.90
10968;DHT22;5536;49.602;10.980;2022-08-24T04:53:28;14.70;99.90
10968;DHT22;5536;49.602;10.980;2022-08-24T04:55:56;14.70;99.90
10968;DHT22;5536;49.602;10.980;2022-08-24T04:58:23;14.80;99.90
10968;DHT22;5536;49.602;10.980;2022-08-24T05:00:50;14.80;99.90
10968;DHT22;5536;49.602;10.980;2022-08-24T05:03:17;15.20;99.90
10968;DHT22;5536;49.602;10.980;2022-08-24T05:05:48;15.40;99.90
10968;DHT22;5536;49.602;10.980;2022-08-24T05:08:17;15.30;99.90
10968;DHT22;5536;49.602;10.980;2022-08-24T05:10:46;15.50;99.90
10968;DHT22;5536;49.602;10.980;2022-08-24T05:13:15;15.60;99.90
10968;DHT22;5536;49.602;10.980;2022-08-24T05:15:43;15.80;99.90
10968;DHT22;5536;49.602;10.980;2022-08-24T05:18:12;15.80;99.90
10968;DHT22;5536;49.602;10.980;2022-08-24T05:20:39;15.70;99.90
10968;DHT22;5536;49.602;10.980;2022-08-24T05:23:08;15.60;99.90
10968;DHT22;5536;49.602;10.980;2022-08-24T05:25:36;15.80;99.90
10968;DHT22;5536;49.602;10.980;2022-08-24T05:28:03;15.80;99.90
10968;DHT22;5536;49.602;10.980;2022-08-24T05:30:30;15.90;99.90
10968;DHT22;5536;49.602;10.980;2022-08-24T05:32:57;16.10;99.90
10968;DHT22;5536;49.602;10.980;2022-08-24T05:35:24;16.10;99.90
10968;DHT22;5536;49.602;10.980;2022-08-24T05:37:51;16.20;99.90
10968;DHT22;5536;49.602;10.980;2022-08-24T05:40:19;16.20;99.90
10968;DHT22;5536;49.602;10.980;2022-08-24T05:42:48;16.20;99.90
10968;DHT22;5536;49.602;10.980;2022-08-24T05:45:15;16.30;99.90
10968;DHT22;5536;49.602;10.980;2022-08-24T05:47:42;16.20;99.90
10968;DHT22;5536;49.602;10.980;2022-08-24T05:50:09;16.10;99.90
10968;DHT22;5536;49.602;10.980;2022-08-24T05:52:36;16.10;99.90
10968;DHT22;5536;49.602;10.980;2022-08-24T05:55:03;16.30;99.90
10968;DHT22;5536;49.602;10.980;2022-08-24T05:57:34;16.50;99.90
10968;DHT22;5536;49.602;10.980;2022-08-24T06:00:03;16.50;99.90
10968;DHT22;5536;49.602;10.980;2022-08-24T06:02:30;16.60;99.90
10968;DHT22;5536;49.602;10.980;2022-08-24T06:04:57;16.80;99.90
10968;DHT22;5536;49.602;10.980;2022-08-24T06:07:24;16.80;99.90
10968;DHT22;5536;49.602;10.980;2022-08-24T06:09:51;16.80;99.90
10968;DHT22;5536;49.602;10.980;2022-08-24T06:12:19;16.80;99.90
10968;DHT22;5536;49.602;10.980;2022-08-24T06:14:47;16.70;99.90
10968;DHT22;5536;49.602;10.980;2022-08-24T06:17:14;16.70;99.90
10968;DHT22;5536;49.602;10.980;2022-08-24T06:19:41;16.80;99.90
10968;DHT22;5536;49.602;10.980;2022-08-24T06:22:09;16.80;99.90
10968;DHT22;5536;49.602;10.980;2022-08-24T06:24:36;17.10;99.90
10968;DHT22;5536;49.602;10.980;2022-08-24T06:27:22;17.10;99.90
10968;DHT22;5536;49.602;10.980;2022-08-24T06:29:54;17.10;99.90
10968;DHT22;5536;49.602;10.980;2022-08-24T06:32:21;17.40;99.90
10968;DHT22;5536;49.602;10.980;2022-08-24T06:34:48;17.30;99.90
10968;DHT22;5536;49.602;10.980;2022-08-24T06:37:15;17.30;99.90
10968;DHT22;5536;49.602;10.980;2022-08-24T06:39:42;17.40;99.90
10968;DHT22;5536;49.602;10.980;2022-08-24T06:42:09;17.50;99.90
10968;DHT22;5536;49.602;10.980;2022-08-24T06:44:36;17.60;99.90
10968;DHT22;5536;49.602;10.980;2022-08-24T06:47:05;17.60;99.90
10968;DHT22;5536;49.602;10.980;2022-08-24T06:49:32;17.60;99.90
10968;DHT22;5536;49.602;10.980;2022-08-24T06:52:00;17.70;99.90
10968;DHT22;5536;49.602;10.980;2022-08-24T06:54:26;17.90;99.90
10968;DHT22;5536;49.602;10.980;2022-08-24T06:56:53;17.90;99.90
10968;DHT22;5536;49.602;10.980;2022-08-24T06:59:23;18.10;99.90
10968;DHT22;5536;49.602;10.980;2022-08-24T07:01:51;18.10;99.90
10968;DHT22;5536;49.602;10.980;2022-08-24T07:04:20;18.20;99.90
10968;DHT22;5536;49.602;10.980;2022-08-24T07:06:47;18.20;99.90
10968;DHT22;5536;49.602;10.980;2022-08-24T07:09:14;18.30;99.90
10968;DHT22;5536;49.602;10.980;2022-08-24T07:11:41;18.40;99.90
10968;DHT22;5536;49.602;10.980;2022-08-24T07:14:08;18.50;99.90
10968;DHT22;5536;49.602;10.980;2022-08-24T07:16:35;18.50;99.90
10968;DHT22;5536;49.602;10.980;2022-08-24T07:19:04;18.50;99.90
10968;DHT22;5536;49.602;10.980;2022-08-24T07:21:32;18.70;99.90
10968;DHT22;5536;49.602;10.980;2022-08-24T07:23:59;18.80;99.90
10968;DHT22;5536;49.602;10.980;2022-08-24T07:26:29;18.90;99.90
10968;DHT22;5536;49.602;10.980;2022-08-24T07:28:59;19.00;99.90
10968;DHT22;5536;49.602;10.980;2022-08-24T07:31:29;19.00;99.90
10968;DHT22;5536;49.602;10.980;2022-08-24T07:33:56;19.10;99.90
10968;DHT22;5536;49.602;10.980;2022-08-24T07:36:23;19.20;99.90
10968;DHT22;5536;49.602;10.980;2022-08-24T07:38:52;19.30;99.90
10968;DHT22;5536;49.602;10.980;2022-08-24T07:41:20;19.30;99.90
10968;DHT22;5536;49.602;10.980;2022-08-24T07:43:47;19.60;99.90
10968;DHT22;5536;49.602;10.980;2022-08-24T07:46:15;19.60;99.90
10968;DHT22;5536;49.602;10.980;2022-08-24T07:48:41;19.80;99.90
10968;DHT22;5536;49.602;10.980;2022-08-24T07:51:11;19.90;99.90
10968;DHT22;5536;49.602;10.980;2022-08-24T07:53:39;20.00;99.90
10968;DHT22;5536;49.602;10.980;2022-08-24T07:56:08;20.10;99.90
10968;DHT22;5536;49.602;10.980;2022-08-24T07:58:35;20.20;99.90
10968;DHT22;5536;49.602;10.980;2022-08-24T08:01:03;20.30;99.90
10968;DHT22;5536;49.602;10.980;2022-08-24T08:03:31;20.40;99.90
10968;DHT22;5536;49.602;10.980;2022-08-24T08:06:00;20.40;99.90
10968;DHT22;5536;49.602;10.980;2022-08-24T08:08:28;20.50;99.90
10968;DHT22;5536;49.602;10.980;2022-08-24T08:10:55;20.60;99.90
10968;DHT22;5536;49.602;10.980;2022-08-24T08:13:23;20.60;99.90
10968;DHT22;5536;49.602;10.980;2022-08-24T08:15:50;20.70;99.90
10968;DHT22;5536;49.602;10.980;2022-08-24T08:18:18;20.70;99.90
10968;DHT22;5536;49.602;10.980;2022-08-24T08:20:45;20.90;99.90
10968;DHT22;5536;49.602;10.980;2022-08-24T08:23:13;20.90;99.90
10968;DHT22;5536;49.602;10.980;2022-08-24T08:25:57;21.10;99.90
10968;DHT22;5536;49.602;10.980;2022-08-24T08:28:28;21.10;99.90
10968;DHT22;5536;49.602;10.980;2022-08-24T08:30:57;21.10;99.90
10968;DHT22;5536;49.602;10.980;2022-08-24T08:33:24;21.20;99.90
10968;DHT22;5536;49.602;10.980;2022-08-24T08:35:52;21.30;99.90
10968;DHT22;5536;49.602;10.980;2022-08-24T08:38:22;21.30;99.90
10968;DHT22;5536;49.602;10.980;2022-08-24T08:41:02;21.50;99.90
10968;DHT22;5536;49.602;10.980;2022-08-24T08:43:41;21.50;99.90
10968;DHT22;5536;49.602;10.980;2022-08-24T08:46:34;21.70;99.90
10968;DHT22;5536;49.602;10.980;2022-08-24T08:49:14;21.80;99.90
10968;DHT22;5536;49.602;10.980;2022-08-24T08:52:05;21.90;99.90
10968;DHT22;5536;49.602;10.980;2022-08-24T08:54:44;22.10;99.90
10968;DHT22;5536;49.602;10.980;2022-08-24T08:57:30;22.00;99.90
10968;DHT22;5536;49.602;10.980;2022-08-24T09:00:09;22.20;99.90
10968;DHT22;5536;49.602;10.980;2022-08-24T09:03:00;22.30;99.90
10968;DHT22;5536;49.602;10.980;2022-08-24T09:08:39;22.60;99.90
10968;DHT22;5536;49.602;10.980;2022-08-24T09:11:15;22.70;99.90
10968;DHT22;5536;49.602;10.980;2022-08-24T09:14:02;22.80;99.90
10968;DHT22;5536;49.602;10.980;2022-08-24T09:16:51;22.90;99.90
10968;DHT22;5536;49.602;10.980;2022-08-24T09:19:33;23.10;99.90
10968;DHT22;5536;49.602;10.980;2022-08-24T09:22:12;23.40;99.90
10968;DHT22;5536;49.602;10.980;2022-08-24T09:25:02;23.40;99.90
10968;DHT22;5536;49.602;10.980;2022-08-24T09:27:45;23.40;99.90
10968;DHT22;5536;49.602;10.980;2022-08-24T09:30:18;23.50;99.90
10968;DHT22;5536;49.602;10.980;2022-08-24T09:33:04;23.40;99.90
10968;DHT22;5536;49.602;10.980;2022-08-24T09:35:50;23.50;99.90
10968;DHT22;5536;49.602;10.980;2022-08-24T09:38:42;23.60;99.90
10968;DHT22;5536;49.602;10.980;2022-08-24T09:44:38;24.00;99.90
10968;DHT22;5536;49.602;10.980;2022-08-24T09:47:21;24.20;99.90
10968;DHT22;5536;49.602;10.980;2022-08-24T09:50:31;24.20;99.90
10968;DHT22;5536;49.602;10.980;2022-08-24T09:53:45;24.30;99.90
10968;DHT22;5536;49.602;10.980;2022-08-24T09:56:39;24.40;99.90
10968;DHT22;5536;49.602;10.980;2022-08-24T09:59:24;24.50;99.90
10968;DHT22;5536;49.602;10.980;2022-08-24T10:02:08;24.60;99.90
10968;DHT22;5536;49.602;10.980;2022-08-24T10:04:52;24.80;99.90
10968;DHT22;5536;49.602;10.980;2022-08-24T10:07:30;24.90;99.90
10968;DHT22;5536;49.602;10.980;2022-08-24T10:10:15;25.00;99.90
10968;DHT22;5536;49.602;10.980;2022-08-24T10:12:56;25.20;99.40
10968;DHT22;5536;49.602;10.980;2022-08-24T10:15:30;25.50;98.60
10968;DHT22;5536;49.602;10.980;2022-08-24T10:18:16;25.70;98.30
10968;DHT22;5536;49.602;10.980;2022-08-24T10:20:56;25.80;97.60
10968;DHT22;5536;49.602;10.980;2022-08-24T10:23:55;25.60;97.40
10968;DHT22;5536;49.602;10.980;2022-08-24T10:26:31;26.00;97.30
10968;DHT22;5536;49.602;10.980;2022-08-24T10:29:21;26.30;96.50
10968;DHT22;5536;49.602;10.980;2022-08-24T10:32:06;26.40;95.70
10968;DHT22;5536;49.602;10.980;2022-08-24T10:34:48;26.40;95.00
10968;DHT22;5536;49.602;10.980;2022-08-24T10:37:31;26.50;94.90
10968;DHT22;5536;49.602;10.980;2022-08-24T10:40:12;26.60;94.40
10968;DHT22;5536;49.602;10.980;2022-08-24T10:42:59;26.30;94.80
10968;DHT22;5536;49.602;10.980;2022-08-24T10:52:25;27.40;93.50
10968;DHT22;5536;49.602;10.980;2022-08-24T10:55:14;27.00;91.70
10968;DHT22;5536;49.602;10.980;2022-08-24T10:57:48;26.60;92.40
10968;DHT22;5536;49.602;10.980;2022-08-24T11:00:20;26.80;92.30
10968;DHT22;5536;49.602;10.980;2022-08-24T11:03:06;27.00;91.50
10968;DHT22;5536;49.602;10.980;2022-08-24T11:05:38;27.50;91.00
10968;DHT22;5536;49.602;10.980;2022-08-24T11:08:06;27.60;90.50
10968;DHT22;5536;49.602;10.980;2022-08-24T11:10:38;27.90;88.80
10968;DHT22;5536;49.602;10.980;2022-08-24T11:13:21;28.20;89.20
10968;DHT22;5536;49.602;10.980;2022-08-24T11:15:51;28.70;85.50
10968;DHT22;5536;49.602;10.980;2022-08-24T11:18:19;28.60;83.40
10968;DHT22;5536;49.602;10.980;2022-08-24T11:20:49;29.10;82.90
10968;DHT22;5536;49.602;10.980;2022-08-24T11:23:18;29.60;78.20
10968;DHT22;5536;49.602;10.980;2022-08-24T11:25:54;29.70;76.90
10968;DHT22;5536;49.602;10.980;2022-08-24T11:28:29;29.90;74.10
10968;DHT22;5536;49.602;10.980;2022-08-24T11:30:58;30.10;71.20
10968;DHT22;5536;49.602;10.980;2022-08-24T11:33:29;30.40;69.00
10968;DHT22;5536;49.602;10.980;2022-08-24T11:35:57;30.60;67.60
10968;DHT22;5536;49.602;10.980;2022-08-24T11:38:28;31.30;64.40
10968;DHT22;5536;49.602;10.980;2022-08-24T11:41:04;31.60;60.00
10968;DHT22;5536;49.602;10.980;2022-08-24T11:43:46;31.30;57.10
10968;DHT22;5536;49.602;10.980;2022-08-24T11:46:25;31.50;57.80
10968;DHT22;5536;49.602;10.980;2022-08-24T11:49:03;31.70;55.00
10968;DHT22;5536;49.602;10.980;2022-08-24T11:51:40;31.10;55.00
10968;DHT22;5536;49.602;10.980;2022-08-24T11:54:16;30.00;56.40
10968;DHT22;5536;49.602;10.980;2022-08-24T11:56:59;30.10;57.40
10968;DHT22;5536;49.602;10.980;2022-08-24T11:59:38;30.00;56.80
10968;DHT22;5536;49.602;10.980;2022-08-24T12:02:15;29.80;57.90
10968;DHT22;5536;49.602;10.980;2022-08-24T12:04:49;30.60;55.80
10968;DHT22;5536;49.602;10.980;2022-08-24T12:07:25;31.10;53.70
10968;DHT22;5536;49.602;10.980;2022-08-24T12:10:16;30.50;53.80
10968;DHT22;5536;49.602;10.980;2022-08-24T12:12:50;29.60;54.90
10968;DHT22;5536;49.602;10.980;2022-08-24T12:15:22;28.80;57.10
10968;DHT22;5536;49.602;10.980;2022-08-24T12:18:00;28.10;60.60
10968;DHT22;5536;49.602;10.980;2022-08-24T12:20:32;29.00;59.10
10968;DHT22;5536;49.602;10.980;2022-08-24T12:23:06;30.80;56.30
10968;DHT22;5536;49.602;10.980;2022-08-24T12:25:34;31.80;50.30
10968;DHT22;5536;49.602;10.980;2022-08-24T12:28:38;32.30;45.00
10968;DHT22;5536;49.602;10.980;2022-08-24T12:31:11;33.20;42.00
10968;DHT22;5536;49.602;10.980;2022-08-24T12:33:45;33.80;37.80
10968;DHT22;5536;49.602;10.980;2022-08-24T12:36:24;34.50;34.00
10968;DHT22;5536;49.602;10.980;2022-08-24T12:39:05;34.80;31.10
10968;DHT22;5536;49.602;10.980;2022-08-24T12:41:35;33.90;29.50
10968;DHT22;5536;49.602;10.980;2022-08-24T12:44:09;33.80;32.20
10968;DHT22;5536;49.602;10.980;2022-08-24T12:46:38;33.70;29.90
10968;DHT22;5536;49.602;10.980;2022-08-24T12:49:12;33.80;30.50
10968;DHT22;5536;49.602;10.980;2022-08-24T12:51:53;34.20;30.60
10968;DHT22;5536;49.602;10.980;2022-08-24T12:54:45;35.10;29.50
10968;DHT22;5536;49.602;10.980;2022-08-24T12:57:28;34.70;24.70
10968;DHT22;5536;49.602;10.980;2022-08-24T13:00:06;35.50;23.40
10968;DHT22;5536;49.602;10.980;2022-08-24T13:02:37;35.40;23.50
10968;DHT22;5536;49.602;10.980;2022-08-24T13:05:12;35.30;22.70
10968;DHT22;5536;49.602;10.980;2022-08-24T13:07:42;34.40;22.00
10968;DHT22;5536;49.602;10.980;2022-08-24T13:10:13;33.70;22.30
10968;DHT22;5536;49.602;10.980;2022-08-24T13:13:11;33.70;20.90
10968;DHT22;5536;49.602;10.980;2022-08-24T13:16:00;34.00;21.50
10968;DHT22;5536;49.602;10.980;2022-08-24T13:18:47;34.90;21.60
10968;DHT22;5536;49.602;10.980;2022-08-24T13:21:39;35.80;18.80
10968;DHT22;5536;49.602;10.980;2022-08-24T13:31:04;35.70;17.50
10968;DHT22;5536;49.602;10.980;2022-08-24T13:33:39;36.10;15.80
10968;DHT22;5536;49.602;10.980;2022-08-24T13:39:36;33.60;17.90
10968;DHT22;5536;49.602;10.980;2022-08-24T13:42:17;32.80;21.10
10968;DHT22;5536;49.602;10.980;2022-08-24T13:45:09;31.40;21.40
10968;DHT22;5536;49.602;10.980;2022-08-24T13:47:52;30.60;23.80
10968;DHT22;5536;49.602;10.980;2022-08-24T13:50:32;30.60;26.50
10968;DHT22;5536;49.602;10.980;2022-08-24T13:53:23;31.70;24.10
10968;DHT22;5536;49.602;10.980;2022-08-24T13:56:17;32.00;23.70
10968;DHT22;5536;49.602;10.980;2022-08-24T13:58:53;31.80;23.20
10968;DHT22;5536;49.602;10.980;2022-08-24T14:01:26;31.70;22.20
10968;DHT22;5536;49.602;10.980;2022-08-24T14:04:18;32.60;21.90
10968;DHT22;5536;49.602;10.980;2022-08-24T14:06:58;33.00;20.20
10968;DHT22;5536;49.602;10.980;2022-08-24T14:09:36;34.00;20.30
10968;DHT22;5536;49.602;10.980;2022-08-24T14:12:17;34.60;17.50
10968;DHT22;5536;49.602;10.980;2022-08-24T14:14:55;34.10;17.10
10968;DHT22;5536;49.602;10.980;2022-08-24T14:17:30;35.40;16.80
10968;DHT22;5536;49.602;10.980;2022-08-24T14:20:37;35.90;15.00
10968;DHT22;5536;49.602;10.980;2022-08-24T14:23:19;36.30;14.40
10968;DHT22;5536;49.602;10.980;2022-08-24T14:25:48;35.90;14.00
10968;DHT22;5536;49.602;10.980;2022-08-24T14:28:36;34.00;16.40
10968;DHT22;5536;49.602;10.980;2022-08-24T14:31:18;33.10;18.70
10968;DHT22;5536;49.602;10.980;2022-08-24T14:33:56;31.70;19.70
10968;DHT22;5536;49.602;10.980;2022-08-24T14:36:39;30.80;22.30
10968;DHT22;5536;49.602;10.980;2022-08-24T14:39:11;30.50;23.90
10968;DHT22;5536;49.602;10.980;2022-08-24T14:41:57;30.40;25.10
10968;DHT22;5536;49.602;10.980;2022-08-24T14:44:52;30.20;25.40
10968;DHT22;5536;49.602;10.980;2022-08-24T14:47:30;30.10;24.40
10968;DHT22;5536;49.602;10.980;2022-08-24T14:50:09;30.50;25.00
10968;DHT22;5536;49.602;10.980;2022-08-24T14:52:51;31.90;22.90
10968;DHT22;5536;49.602;10.980;2022-08-24T14:55:28;32.20;21.80
10968;DHT22;5536;49.602;10.980;2022-08-24T14:58:10;31.50;23.10
10968;DHT22;5536;49.602;10.980;2022-08-24T15:04:23;30.60;25.50
10968;DHT22;5536;49.602;10.980;2022-08-24T15:06:55;30.20;26.30
10968;DHT22;5536;49.602;10.980;2022-08-24T15:09:25;30.00;26.40
10968;DHT22;5536;49.602;10.980;2022-08-24T15:11:57;29.60;26.90
10968;DHT22;5536;49.602;10.980;2022-08-24T15:14:33;29.50;27.90
10968;DHT22;5536;49.602;10.980;2022-08-24T15:17:05;29.50;27.50
10968;DHT22;5536;49.602;10.980;2022-08-24T15:19:45;29.80;27.30
10968;DHT22;5536;49.602;10.980;2022-08-24T15:22:24;30.00;27.00
10968;DHT22;5536;49.602;10.980;2022-08-24T15:24:56;29.90;27.50
10968;DHT22;5536;49.602;10.980;2022-08-24T15:27:30;30.10;28.40
10968;DHT22;5536;49.602;10.980;2022-08-24T15:30:01;29.80;28.20
10968;DHT22;5536;49.602;10.980;2022-08-24T15:32:41;29.80;28.70
10968;DHT22;5536;49.602;10.980;2022-08-24T15:35:24;29.70;28.20
10968;DHT22;5536;49.602;10.980;2022-08-24T15:37:54;29.40;29.90
10968;DHT22;5536;49.602;10.980;2022-08-24T15:40:24;29.30;31.20
10968;DHT22;5536;49.602;10.980;2022-08-24T15:42:55;29.10;31.90
10968;DHT22;5536;49.602;10.980;2022-08-24T15:45:23;28.90;32.70
10968;DHT22;5536;49.602;10.980;2022-08-24T15:47:51;28.80;32.90
10968;DHT22;5536;49.602;10.980;2022-08-24T15:50:23;28.70;34.50
10968;DHT22;5536;49.602;10.980;2022-08-24T15:52:54;28.60;34.50
10968;DHT22;5536;49.602;10.980;2022-08-24T15:55:30;28.60;34.80
10968;DHT22;5536;49.602;10.980;2022-08-24T15:58:11;28.90;33.60
10968;DHT22;5536;49.602;10.980;2022-08-24T16:00:38;29.10;33.00
10968;DHT22;5536;49.602;10.980;2022-08-24T16:03:44;29.80;31.30
10968;DHT22;5536;49.602;10.980;2022-08-24T16:06:21;30.40;28.90
10968;DHT22;5536;49.602;10.980;2022-08-24T16:08:59;31.10;27.00
10968;DHT22;5536;49.602;10.980;2022-08-24T16:11:31;31.40;26.20
10968;DHT22;5536;49.602;10.980;2022-08-24T16:13:58;31.60;25.30
10968;DHT22;5536;49.602;10.980;2022-08-24T16:16:38;31.40;25.70
10968;DHT22;5536;49.602;10.980;2022-08-24T16:19:07;31.40;25.50
10968;DHT22;5536;49.602;10.980;2022-08-24T16:21:52;30.90;25.60
10968;DHT22;5536;49.602;10.980;2022-08-24T16:24:26;30.70;27.40
10968;DHT22;5536;49.602;10.980;2022-08-24T16:26:57;29.90;29.70
10968;DHT22;5536;49.602;10.980;2022-08-24T16:29:46;29.50;31.40
10968;DHT22;5536;49.602;10.980;2022-08-24T16:32:14;28.90;32.90
10968;DHT22;5536;49.602;10.980;2022-08-24T16:34:44;28.40;35.40